Skip to main content
Bitte wählen Sie:

Nasdaq 100

Alles was Sie über den wissen sollten: Vom aktuellen Kurs und Chart bis zur Kursentwicklung der Nasdaq 100 Werte

Nasdaq 100 Realtime

ISIN: US6311011026
Symbol: NDX | Börse:

Kurszeit: 02.09.2026 21:59Uhr

29138.96

Punkte

Zeithorizont: 1 W
62.68 Punkte
0.22
Tageshoch
29167.01
Tagestief
28885.18

Nasdaq 100 Chart

Nasdaq 100 Tops

Loading ...

Nasdaq 100 Flops

Loading ...

Eine vollständige Übersicht aller Gewinner und Verlierer des Tages, des aktuellen Jahres und weiterer Zeiträume finden Sie auf unserer Seite Nasdaq 100 Tops und Flops.

Andere Indizes

Nasdaq 100: Die Situation an der Börse aktuell

Nasdaq 100: News & Analysen

Börsen-Podcasts

Nasdaq 100: Ratgeber und Tipps

Nasdaq 100 Kurs

Kurs 29.138,96
Änderung in Punkten 62.68
Änderung in % 0.21557090521896
Datum / Zeit 02.09.26 | 21:59
Börse 2,00
Öffnungskurs 29.077,18
Vortag 29.076,28
T-Hoch 29.167,01
T-Tief 28.885,18
Jahreshoch 30.757,42
Jahrestief 22.846,75
Währung Punkte
Loading ...

Aktueller Nasdaq 100 Marktbericht

Nasdaq 100 Werte: Aktuelle Kurse der Einzelwerte

Loading ...
Unternehmen Vortag Kurs Hoch Tief +/- % Zeit Analysen
Cintas Corp. 200,59 198,09 200,61 197,57 -2,50 -1,25 % 22:15
Paychex 125,64 124,00 125,03 122,80 -1,64 -1,31 % 22:15
Sirius XM 27,62 29,70 29,87 28,74 2,08 7,53 % 22:15
Rivian 15,54 15,61 15,79 15,41 0,07 0,45 % 22:15
Marriott International 334,55 333,14 337,99 332,24 -1,41 -0,42 % 22:15
ASML Holding NV-NY 1.665,14 1.682,30 1.688,66 1.650,20 17,16 1,03 % 22:15
Pinduoduo 83,17 82,25 83,42 82,12 -0,92 -1,11 % 22:15
Amazon 254,92 254,98 256,24 253,40 0,06 0,02 % 22:15
Biogen 216,04 222,67 225,59 216,97 6,63 3,07 % 22:15
AMD 459,61 457,06 462,21 452,36 -2,55 -0,55 % 22:15
Amgen 438,12 442,84 445,57 435,00 4,72 1,08 % 22:15
Applied Materials 441,85 438,46 443,50 433,57 -3,39 -0,77 % 22:15
Align 159,15 159,13 160,85 155,50 4,17 2,69 % 21:59
Autodesk 247,69 241,73 248,27 241,05 -5,96 -2,41 % 22:15
Baker Hughes 63,66 64,63 65,27 62,71 0,97 1,52 % 22:15
Costco Wholesale 939,96 928,48 938,88 920,31 -11,48 -1,22 % 22:15
Xcel Energy 75,89 75,51 76,25 74,71 -0,38 -0,50 % 22:15
Cisco Systems 109,74 109,46 110,51 108,40 -0,28 -0,26 % 22:15
Workday 198,38 200,87 205,70 197,38 2,49 1,26 % 22:15
Dollar Tree 131,71 131,91 134,99 130,41 0,20 0,15 % 22:15
Enphase Energy 35,54 35,52 36,10 34,45 -0,02 -0,06 % 22:15
Electronic Arts 209,91 209,70 210,20 209,70 -0,21 -0,10 % 22:15
CoStar Group 31,98 31,26 32,65 31,20 -0,72 -2,25 % 22:15
eBay 104,98 106,70 108,20 104,10 1,72 1,64 % 22:15
O Reilly Automotive 87,95 86,97 88,15 86,40 -0,98 -1,11 % 22:15
Meta Platforms 578,54 592,85 600,38 577,00 14,31 2,47 % 22:15
Regeneron Pharmaceuticals 823,82 852,03 854,49 825,77 28,21 3,42 % 22:15
Gilead 149,92 149,61 152,55 148,83 -0,31 -0,21 % 22:15
Verisk Analytic CL A 194,35 188,16 193,33 187,44 -6,19 -3,18 % 22:00
Keurig Dr Pepper 31,89 32,59 33,10 31,93 0,70 2,20 % 22:00
Microchip Technology Inc. 71,41 72,76 73,19 70,67 1,35 1,89 % 22:15
Alphabet 332,03 333,78 336,51 329,52 1,75 0,53 % 22:15
Honeywell International
Alphabet A 335,02 337,12 340,00 332,82 2,10 0,63 % 22:15
Palo Alto Networks 362,09 328,48 350,67 321,39 -33,61 -9,28 % 22:15
Intel 88,97 90,05 90,43 87,50 1,08 1,21 % 22:15
IDEXX Laboratories 545,16 538,99 558,42 537,31 -6,17 -1,13 % 22:15
Intuit 344,93 342,94 348,40 339,32 -1,99 -0,58 % 22:15
Moderna 154,27 150,81 156,42 146,54 -3,46 -2,24 % 22:15
Intuitive Surgical 369,25 371,88 382,41 368,25 2,63 0,71 % 22:15
Copart 32,47 32,16 32,49 31,89 -0,31 -0,95 % 22:15
Lululemon Athletica 118,00 120,07 122,21 118,55 2,07 1,75 % 22:15
Datadog 223,84 209,23 219,79 208,22 -14,61 -6,53 % 22:15
Monster Beverage 44,99 44,42 45,37 44,04 -0,57 -1,27 % 22:15
Constellation Energy 280,31 290,04 290,81 277,88 9,73 3,47 % 22:15
Microsoft 501,02 496,82 500,27 493,81 -4,20 -0,84 % 22:15
Adobe 286,08 279,79 287,49 279,43 -6,29 -2,20 % 22:15
Micron Technology 933,44 956,08 958,00 927,16 22,64 2,43 % 22:15
Mondelez 61,61 62,45 63,03 61,29 0,84 1,36 % 22:15
Netflix 80,81 82,73 83,12 80,30 1,92 2,38 % 22:15
Paccar 122,45 122,13 123,41 121,18 -0,32 -0,26 % 22:15
NVIDIA 217,44 224,41 227,95 218,48 6,97 3,21 % 22:15
PayPal 52,40 54,67 55,19 52,35 2,27 4,33 % 22:15
NXP 222,40 228,50 229,99 222,22 6,10 2,74 % 22:15
Ross Stores 229,24 230,85 232,77 228,01 1,61 0,70 % 22:00
Booking Holdings 195,69 199,60 200,62 195,73 3,91 2,00 % 22:15
T-Mobile US 182,16 187,30 188,07 182,43 5,14 2,82 % 22:15
PepsiCo 139,79 140,52 141,71 139,30 0,73 0,52 % 22:15
Charter Communication – A 146,19 158,97 159,87 147,67 12,78 8,74 % 22:15
Qualcomm 166,61 169,96 170,60 165,08 3,35 2,01 % 22:15
KLA 170,89 172,26 172,95 167,56 1,37 0,80 % 22:15
Starbucks 106,15 106,72 107,90 105,63 0,57 0,54 % 22:15
American Electric Power 122,96 123,57 123,93 121,50 0,61 0,50 % 22:15
Tesla 356,09 357,01 360,62 349,92 0,92 0,26 % 22:50
Exelon 43,83 43,97 44,07 43,22 0,14 0,32 % 22:15
Texas Instruments 253,34 254,80 258,04 251,05 1,46 0,58 % 22:15
Synopsys 414,82 415,97 418,73 410,52 1,15 0,28 % 22:15
Vertex Pharma 547,65 556,75 558,36 549,07 9,10 1,66 % 22:15
Diamondback Energy 203,16 203,42 204,85 200,71 0,26 0,13 % 22:15
Broadcom 369,68 367,24 371,09 364,65 -2,44 -0,66 % 22:15
Fortinet 161,85 154,54 162,28 151,80 -7,31 -4,52 % 22:15
Analog Devices 354,52 355,71 360,77 352,03 1,19 0,34 % 22:15
Cadence Design Systems 313,04 306,67 313,21 303,66 -6,37 -2,03 % 22:15
Automatic Data Processing 283,49 281,16 283,00 278,08 -2,33 -0,82 % 22:15
MercadoLibre 1.963,49 2.006,58 2.009,99 1.949,61 43,09 2,19 % 22:15
CSX 48,70 48,65 48,85 47,91 -0,05 -0,10 % 22:00
Crowdstrike Holdings 215,07 203,42 214,85 200,60 -11,65 -5,42 % 22:15
Cognizant Technology Solutions 63,39 63,40 64,04 62,71 0,01 0,02 % 22:00
Zoom Communications 94,90 95,86 97,21 95,07 0,96 1,01 % 22:15
Comcast 26,30 26,81 27,19 26,46 0,51 1,94 % 22:15
Dexcom 90,14 89,69 91,90 89,54 -0,45 -0,50 % 22:15
Warner Bros. Discovery 28,32 28,39 28,77 28,33 0,07 0,25 % 22:15
Marvell Technology 210,39 206,48 208,49 203,50 -3,91 -1,86 % 22:15
Fastenal 48,75 47,93 48,69 47,65 -0,82 -1,68 % 22:00
Airbnb 182,55 183,26 183,56 180,16 0,71 0,39 % 22:15
Illumina 207,13 213,25 214,98 207,13 6,12 2,95 % 22:15
Zscaler 178,37 172,73 177,60 171,32 -5,64 -3,16 % 22:15
JD.com ADR 27,90 27,83 28,03 27,70 -0,07 -0,25 % 22:15
Atlassian 187,03 186,44 192,87 184,73 -0,59 -0,32 % 22:15
The Kraft Heinz 25,87 26,26 26,44 25,84 0,39 1,51 % 22:15
Old Dominion Freight Line 187,01 187,61 189,30 183,50 0,60 0,32 % 22:00
Lam Research 290,20 288,32 292,19 284,40 -1,88 -0,65 % 22:15
GLOBALFOUNDRIES 43,93 43,97 44,53 43,17 0,04 0,09 % 22:15
Apple 325,13 324,96 328,40 323,53 -0,17 -0,05 % 22:15

Der US-Index Nasdaq 100 umfasst 100 der größten an der Nasdaq gelisteten Unternehmen, die nicht der Finanzbranche angehören. Im Gegensatz zum breiter gefassten Nasdaq Composite liegt der Fokus des Nasdaq 100 stärker auf Technologieunternehmen, auch wenn vereinzelt Unternehmen aus anderen Branchen enthalten sind, etwa aus dem Industrie- oder Konsumgütersektor.

 

Die Nasdaq ist eine vollelektronische Börse ohne klassischen Parketthandel, im Gegensatz zur New York Stock Exchange. Der Nasdaq 100 wird seit 1985 berechnet, während die Nasdaq selbst bereits 1971 gegründet wurde. Der Name NASDAQ steht für „National Association of Securities Dealers Automated Quotations“.

Der Nasdaq 100 ist – wie der Dow Jones – ein Kursindex. Das bedeutet, dass Dividenden bei der Indexberechnung nicht berücksichtigt werden. Die Zusammensetzung des Index wird regelmäßig überprüft, ebenso die Gewichtung der enthaltenen Unternehmen.